sensor_id;sensor_type;location;lat;lon;timestamp;P1;durP1;ratioP1;P2;durP2;ratioP2
6195;SDS011;3131;42.630;23.382;2022-08-03T00:01:03;4.07;;;3.20;;
6195;SDS011;3131;42.630;23.382;2022-08-03T00:03:30;2.10;;;1.90;;
6195;SDS011;3131;42.630;23.382;2022-08-03T00:05:58;1.97;;;1.80;;
6195;SDS011;3131;42.630;23.382;2022-08-03T00:08:25;4.00;;;1.70;;
6195;SDS011;3131;42.630;23.382;2022-08-03T00:10:53;1.80;;;1.70;;
6195;SDS011;3131;42.630;23.382;2022-08-03T00:13:20;1.80;;;1.63;;
6195;SDS011;3131;42.630;23.382;2022-08-03T00:15:48;2.03;;;1.83;;
6195;SDS011;3131;42.630;23.382;2022-08-03T00:18:16;2.77;;;2.13;;
6195;SDS011;3131;42.630;23.382;2022-08-03T00:20:44;2.53;;;2.33;;
6195;SDS011;3131;42.630;23.382;2022-08-03T00:23:11;1.93;;;1.80;;
6195;SDS011;3131;42.630;23.382;2022-08-03T00:25:39;5.27;;;2.00;;
6195;SDS011;3131;42.630;23.382;2022-08-03T00:28:07;3.63;;;1.63;;
6195;SDS011;3131;42.630;23.382;2022-08-03T00:30:34;3.23;;;1.70;;
6195;SDS011;3131;42.630;23.382;2022-08-03T00:33:02;5.20;;;2.40;;
6195;SDS011;3131;42.630;23.382;2022-08-03T00:35:30;2.03;;;1.83;;
6195;SDS011;3131;42.630;23.382;2022-08-03T00:37:58;4.27;;;2.13;;
6195;SDS011;3131;42.630;23.382;2022-08-03T00:40:26;3.97;;;2.10;;
6195;SDS011;3131;42.630;23.382;2022-08-03T00:42:54;2.57;;;1.97;;
6195;SDS011;3131;42.630;23.382;2022-08-03T00:45:22;3.10;;;2.33;;
6195;SDS011;3131;42.630;23.382;2022-08-03T00:47:50;2.87;;;2.00;;
6195;SDS011;3131;42.630;23.382;2022-08-03T00:50:18;2.47;;;1.93;;
6195;SDS011;3131;42.630;23.382;2022-08-03T00:52:45;2.00;;;1.80;;
6195;SDS011;3131;42.630;23.382;2022-08-03T00:55:14;2.33;;;2.13;;
6195;SDS011;3131;42.630;23.382;2022-08-03T00:57:42;3.53;;;2.73;;
6195;SDS011;3131;42.630;23.382;2022-08-03T01:00:11;4.03;;;2.30;;
6195;SDS011;3131;42.630;23.382;2022-08-03T01:02:39;2.87;;;2.43;;
6195;SDS011;3131;42.630;23.382;2022-08-03T01:05:07;4.93;;;3.47;;
6195;SDS011;3131;42.630;23.382;2022-08-03T01:07:41;2.63;;;2.30;;
6195;SDS011;3131;42.630;23.382;2022-08-03T01:10:11;2.33;;;2.13;;
6195;SDS011;3131;42.630;23.382;2022-08-03T01:12:40;2.47;;;2.07;;
6195;SDS011;3131;42.630;23.382;2022-08-03T01:15:09;6.73;;;2.53;;
6195;SDS011;3131;42.630;23.382;2022-08-03T01:17:39;3.23;;;2.40;;
6195;SDS011;3131;42.630;23.382;2022-08-03T01:20:09;2.23;;;2.00;;
6195;SDS011;3131;42.630;23.382;2022-08-03T01:22:47;1.90;;;1.80;;
6195;SDS011;3131;42.630;23.382;2022-08-03T01:25:17;3.00;;;1.83;;
6195;SDS011;3131;42.630;23.382;2022-08-03T01:27:48;2.23;;;1.90;;
6195;SDS011;3131;42.630;23.382;2022-08-03T01:30:15;2.40;;;2.20;;
6195;SDS011;3131;42.630;23.382;2022-08-03T01:32:44;2.30;;;2.10;;
6195;SDS011;3131;42.630;23.382;2022-08-03T01:35:12;2.00;;;1.80;;
6195;SDS011;3131;42.630;23.382;2022-08-03T01:37:41;3.57;;;1.80;;
6195;SDS011;3131;42.630;23.382;2022-08-03T01:40:11;2.30;;;2.10;;
6195;SDS011;3131;42.630;23.382;2022-08-03T01:42:39;2.60;;;2.20;;
6195;SDS011;3131;42.630;23.382;2022-08-03T01:45:09;2.70;;;2.10;;
6195;SDS011;3131;42.630;23.382;2022-08-03T01:47:37;3.50;;;2.20;;
6195;SDS011;3131;42.630;23.382;2022-08-03T01:50:06;2.47;;;2.10;;
6195;SDS011;3131;42.630;23.382;2022-08-03T01:52:33;2.53;;;1.70;;
6195;SDS011;3131;42.630;23.382;2022-08-03T01:55:03;2.33;;;1.80;;
6195;SDS011;3131;42.630;23.382;2022-08-03T01:57:31;2.13;;;1.93;;
6195;SDS011;3131;42.630;23.382;2022-08-03T01:59:59;2.93;;;1.87;;
6195;SDS011;3131;42.630;23.382;2022-08-03T02:02:27;2.63;;;2.27;;
6195;SDS011;3131;42.630;23.382;2022-08-03T02:04:56;3.17;;;1.90;;
6195;SDS011;3131;42.630;23.382;2022-08-03T02:07:25;2.83;;;1.77;;
6195;SDS011;3131;42.630;23.382;2022-08-03T02:09:53;2.50;;;1.97;;
6195;SDS011;3131;42.630;23.382;2022-08-03T02:12:22;2.20;;;2.00;;
6195;SDS011;3131;42.630;23.382;2022-08-03T02:14:50;2.77;;;2.03;;
6195;SDS011;3131;42.630;23.382;2022-08-03T02:17:17;4.40;;;2.27;;
6195;SDS011;3131;42.630;23.382;2022-08-03T02:19:46;3.10;;;2.13;;
6195;SDS011;3131;42.630;23.382;2022-08-03T02:22:14;1.73;;;1.63;;
6195;SDS011;3131;42.630;23.382;2022-08-03T02:24:41;3.43;;;1.80;;
6195;SDS011;3131;42.630;23.382;2022-08-03T02:27:12;1.70;;;1.60;;
6195;SDS011;3131;42.630;23.382;2022-08-03T02:29:39;3.50;;;2.10;;
6195;SDS011;3131;42.630;23.382;2022-08-03T02:32:09;2.30;;;2.10;;
6195;SDS011;3131;42.630;23.382;2022-08-03T02:34:38;4.93;;;2.17;;
6195;SDS011;3131;42.630;23.382;2022-08-03T02:37:06;2.40;;;2.20;;
6195;SDS011;3131;42.630;23.382;2022-08-03T02:39:34;8.50;;;2.77;;
6195;SDS011;3131;42.630;23.382;2022-08-03T02:42:03;4.40;;;2.53;;
6195;SDS011;3131;42.630;23.382;2022-08-03T02:44:32;3.73;;;2.27;;
6195;SDS011;3131;42.630;23.382;2022-08-03T02:47:01;5.43;;;3.53;;
6195;SDS011;3131;42.630;23.382;2022-08-03T02:49:29;4.00;;;3.60;;
6195;SDS011;3131;42.630;23.382;2022-08-03T02:51:58;9.67;;;3.20;;
6195;SDS011;3131;42.630;23.382;2022-08-03T02:54:26;4.10;;;3.07;;
6195;SDS011;3131;42.630;23.382;2022-08-03T02:56:54;4.23;;;3.07;;
6195;SDS011;3131;42.630;23.382;2022-08-03T02:59:23;5.90;;;2.83;;
6195;SDS011;3131;42.630;23.382;2022-08-03T03:01:51;2.80;;;2.50;;
6195;SDS011;3131;42.630;23.382;2022-08-03T03:04:19;3.63;;;2.67;;
6195;SDS011;3131;42.630;23.382;2022-08-03T03:06:47;3.93;;;2.90;;
6195;SDS011;3131;42.630;23.382;2022-08-03T03:09:15;3.53;;;2.43;;
6195;SDS011;3131;42.630;23.382;2022-08-03T03:11:43;2.80;;;2.20;;
6195;SDS011;3131;42.630;23.382;2022-08-03T03:14:10;2.20;;;1.97;;
6195;SDS011;3131;42.630;23.382;2022-08-03T03:16:38;2.47;;;2.27;;
6195;SDS011;3131;42.630;23.382;2022-08-03T03:19:07;2.30;;;2.10;;
6195;SDS011;3131;42.630;23.382;2022-08-03T03:21:35;4.47;;;2.20;;
6195;SDS011;3131;42.630;23.382;2022-08-03T03:24:05;3.80;;;2.47;;
6195;SDS011;3131;42.630;23.382;2022-08-03T03:26:32;2.23;;;1.80;;
6195;SDS011;3131;42.630;23.382;2022-08-03T03:29:00;5.80;;;2.00;;
6195;SDS011;3131;42.630;23.382;2022-08-03T03:31:28;2.30;;;2.10;;
6195;SDS011;3131;42.630;23.382;2022-08-03T03:33:56;3.27;;;2.10;;
6195;SDS011;3131;42.630;23.382;2022-08-03T03:36:24;4.33;;;2.60;;
6195;SDS011;3131;42.630;23.382;2022-08-03T03:38:51;5.40;;;2.40;;
6195;SDS011;3131;42.630;23.382;2022-08-03T03:41:19;2.47;;;2.23;;
6195;SDS011;3131;42.630;23.382;2022-08-03T03:43:47;2.83;;;2.00;;
6195;SDS011;3131;42.630;23.382;2022-08-03T03:46:15;4.27;;;2.50;;
6195;SDS011;3131;42.630;23.382;2022-08-03T03:48:43;4.00;;;2.40;;
6195;SDS011;3131;42.630;23.382;2022-08-03T03:51:11;5.23;;;2.37;;
6195;SDS011;3131;42.630;23.382;2022-08-03T03:53:39;2.40;;;2.20;;
6195;SDS011;3131;42.630;23.382;2022-08-03T03:56:07;3.30;;;2.33;;
6195;SDS011;3131;42.630;23.382;2022-08-03T03:58:35;3.87;;;2.30;;
6195;SDS011;3131;42.630;23.382;2022-08-03T04:01:02;5.83;;;2.83;;
6195;SDS011;3131;42.630;23.382;2022-08-03T04:03:30;3.53;;;2.83;;
6195;SDS011;3131;42.630;23.382;2022-08-03T04:05:57;2.83;;;2.50;;
6195;SDS011;3131;42.630;23.382;2022-08-03T04:08:43;2.53;;;2.17;;
6195;SDS011;3131;42.630;23.382;2022-08-03T04:11:29;2.53;;;2.30;;
6195;SDS011;3131;42.630;23.382;2022-08-03T04:14:00;3.23;;;2.67;;
6195;SDS011;3131;42.630;23.382;2022-08-03T04:16:27;2.60;;;2.27;;
6195;SDS011;3131;42.630;23.382;2022-08-03T04:18:58;8.87;;;3.50;;
6195;SDS011;3131;42.630;23.382;2022-08-03T04:21:25;3.60;;;2.50;;
6195;SDS011;3131;42.630;23.382;2022-08-03T04:23:55;5.37;;;2.90;;
6195;SDS011;3131;42.630;23.382;2022-08-03T04:26:23;4.23;;;2.80;;
6195;SDS011;3131;42.630;23.382;2022-08-03T04:28:52;3.43;;;2.67;;
6195;SDS011;3131;42.630;23.382;2022-08-03T04:31:21;4.53;;;3.10;;
6195;SDS011;3131;42.630;23.382;2022-08-03T04:33:49;2.90;;;2.53;;
6195;SDS011;3131;42.630;23.382;2022-08-03T04:36:18;4.17;;;2.67;;
6195;SDS011;3131;42.630;23.382;2022-08-03T04:38:50;3.53;;;2.97;;
6195;SDS011;3131;42.630;23.382;2022-08-03T04:41:17;2.60;;;2.33;;
6195;SDS011;3131;42.630;23.382;2022-08-03T04:43:45;15.23;;;5.03;;
6195;SDS011;3131;42.630;23.382;2022-08-03T04:46:14;7.73;;;3.10;;
6195;SDS011;3131;42.630;23.382;2022-08-03T04:48:41;13.23;;;3.47;;
6195;SDS011;3131;42.630;23.382;2022-08-03T04:51:10;5.53;;;2.90;;
6195;SDS011;3131;42.630;23.382;2022-08-03T04:53:38;7.43;;;3.13;;
6195;SDS011;3131;42.630;23.382;2022-08-03T04:56:06;12.97;;;3.53;;
6195;SDS011;3131;42.630;23.382;2022-08-03T04:58:34;4.27;;;2.70;;
6195;SDS011;3131;42.630;23.382;2022-08-03T05:01:02;2.90;;;2.23;;
6195;SDS011;3131;42.630;23.382;2022-08-03T05:03:29;5.17;;;2.60;;
6195;SDS011;3131;42.630;23.382;2022-08-03T05:05:57;3.57;;;2.37;;
6195;SDS011;3131;42.630;23.382;2022-08-03T05:08:25;3.23;;;2.23;;
6195;SDS011;3131;42.630;23.382;2022-08-03T05:10:52;4.20;;;2.70;;
6195;SDS011;3131;42.630;23.382;2022-08-03T05:13:20;3.17;;;2.60;;
6195;SDS011;3131;42.630;23.382;2022-08-03T05:15:47;3.67;;;2.80;;
6195;SDS011;3131;42.630;23.382;2022-08-03T05:18:15;6.00;;;3.37;;
6195;SDS011;3131;42.630;23.382;2022-08-03T05:20:43;4.93;;;3.13;;
6195;SDS011;3131;42.630;23.382;2022-08-03T05:23:11;11.67;;;3.93;;
6195;SDS011;3131;42.630;23.382;2022-08-03T05:25:38;9.50;;;4.03;;
6195;SDS011;3131;42.630;23.382;2022-08-03T05:28:06;9.03;;;3.43;;
6195;SDS011;3131;42.630;23.382;2022-08-03T05:30:35;6.53;;;4.27;;
6195;SDS011;3131;42.630;23.382;2022-08-03T05:33:03;6.77;;;3.13;;
6195;SDS011;3131;42.630;23.382;2022-08-03T05:35:30;8.53;;;3.57;;
6195;SDS011;3131;42.630;23.382;2022-08-03T05:38:00;13.53;;;4.53;;
6195;SDS011;3131;42.630;23.382;2022-08-03T05:40:28;18.93;;;4.47;;
6195;SDS011;3131;42.630;23.382;2022-08-03T05:42:55;7.80;;;3.97;;
6195;SDS011;3131;42.630;23.382;2022-08-03T05:45:23;11.87;;;3.80;;
6195;SDS011;3131;42.630;23.382;2022-08-03T05:47:51;12.37;;;3.83;;
6195;SDS011;3131;42.630;23.382;2022-08-03T05:50:19;19.50;;;4.97;;
6195;SDS011;3131;42.630;23.382;2022-08-03T05:52:46;9.50;;;4.30;;
6195;SDS011;3131;42.630;23.382;2022-08-03T05:58:19;7.37;;;3.80;;
6195;SDS011;3131;42.630;23.382;2022-08-03T06:00:46;6.53;;;3.87;;
6195;SDS011;3131;42.630;23.382;2022-08-03T06:03:14;7.40;;;4.10;;
6195;SDS011;3131;42.630;23.382;2022-08-03T06:05:42;13.27;;;4.33;;
6195;SDS011;3131;42.630;23.382;2022-08-03T06:08:09;12.83;;;3.77;;
6195;SDS011;3131;42.630;23.382;2022-08-03T06:10:37;13.23;;;3.87;;
6195;SDS011;3131;42.630;23.382;2022-08-03T06:13:04;6.37;;;3.37;;
6195;SDS011;3131;42.630;23.382;2022-08-03T06:15:32;9.63;;;5.13;;
6195;SDS011;3131;42.630;23.382;2022-08-03T06:18:00;7.43;;;3.63;;
6195;SDS011;3131;42.630;23.382;2022-08-03T06:20:28;6.83;;;3.20;;
6195;SDS011;3131;42.630;23.382;2022-08-03T06:22:55;10.43;;;3.53;;
6195;SDS011;3131;42.630;23.382;2022-08-03T06:25:23;5.07;;;3.13;;
6195;SDS011;3131;42.630;23.382;2022-08-03T06:27:51;8.50;;;4.23;;
6195;SDS011;3131;42.630;23.382;2022-08-03T06:30:19;4.43;;;3.07;;
6195;SDS011;3131;42.630;23.382;2022-08-03T06:32:46;9.23;;;2.80;;
6195;SDS011;3131;42.630;23.382;2022-08-03T06:35:14;15.33;;;4.40;;
6195;SDS011;3131;42.630;23.382;2022-08-03T06:37:42;8.33;;;3.10;;
6195;SDS011;3131;42.630;23.382;2022-08-03T06:40:11;5.87;;;3.20;;
6195;SDS011;3131;42.630;23.382;2022-08-03T06:42:40;3.77;;;2.97;;
6195;SDS011;3131;42.630;23.382;2022-08-03T06:45:08;6.63;;;3.10;;
6195;SDS011;3131;42.630;23.382;2022-08-03T06:47:36;5.03;;;2.80;;
6195;SDS011;3131;42.630;23.382;2022-08-03T06:50:04;4.70;;;2.83;;
6195;SDS011;3131;42.630;23.382;2022-08-03T06:52:32;17.97;;;4.50;;
6195;SDS011;3131;42.630;23.382;2022-08-03T06:55:00;9.80;;;3.53;;
6195;SDS011;3131;42.630;23.382;2022-08-03T06:57:27;5.30;;;2.93;;
6195;SDS011;3131;42.630;23.382;2022-08-03T06:59:55;9.13;;;3.30;;
6195;SDS011;3131;42.630;23.382;2022-08-03T07:02:24;10.40;;;3.87;;
6195;SDS011;3131;42.630;23.382;2022-08-03T07:04:52;7.80;;;3.90;;
6195;SDS011;3131;42.630;23.382;2022-08-03T07:07:19;5.73;;;3.60;;
6195;SDS011;3131;42.630;23.382;2022-08-03T07:09:46;10.57;;;4.73;;
6195;SDS011;3131;42.630;23.382;2022-08-03T07:12:14;16.87;;;4.43;;
6195;SDS011;3131;42.630;23.382;2022-08-03T07:14:42;12.43;;;4.17;;
6195;SDS011;3131;42.630;23.382;2022-08-03T07:17:09;11.53;;;4.47;;
6195;SDS011;3131;42.630;23.382;2022-08-03T07:19:37;10.47;;;3.70;;
6195;SDS011;3131;42.630;23.382;2022-08-03T07:22:05;8.47;;;5.80;;
6195;SDS011;3131;42.630;23.382;2022-08-03T07:24:33;15.33;;;4.40;;
6195;SDS011;3131;42.630;23.382;2022-08-03T07:27:01;4.97;;;3.70;;
6195;SDS011;3131;42.630;23.382;2022-08-03T07:29:28;6.53;;;3.43;;
6195;SDS011;3131;42.630;23.382;2022-08-03T07:31:56;13.40;;;3.33;;
6195;SDS011;3131;42.630;23.382;2022-08-03T07:34:24;18.87;;;3.47;;
6195;SDS011;3131;42.630;23.382;2022-08-03T07:36:51;5.83;;;3.70;;
6195;SDS011;3131;42.630;23.382;2022-08-03T07:39:19;12.17;;;4.30;;
6195;SDS011;3131;42.630;23.382;2022-08-03T07:41:46;11.93;;;4.30;;
6195;SDS011;3131;42.630;23.382;2022-08-03T07:44:16;14.63;;;4.87;;
6195;SDS011;3131;42.630;23.382;2022-08-03T07:46:43;15.23;;;4.87;;
6195;SDS011;3131;42.630;23.382;2022-08-03T07:49:11;17.50;;;5.20;;
6195;SDS011;3131;42.630;23.382;2022-08-03T07:51:39;12.50;;;4.63;;
6195;SDS011;3131;42.630;23.382;2022-08-03T07:54:06;9.97;;;4.37;;
6195;SDS011;3131;42.630;23.382;2022-08-03T07:56:35;11.40;;;4.77;;
6195;SDS011;3131;42.630;23.382;2022-08-03T07:59:02;6.43;;;3.27;;
6195;SDS011;3131;42.630;23.382;2022-08-03T08:01:31;7.20;;;3.20;;
6195;SDS011;3131;42.630;23.382;2022-08-03T08:04:00;8.17;;;4.10;;
6195;SDS011;3131;42.630;23.382;2022-08-03T08:06:27;5.90;;;3.73;;
6195;SDS011;3131;42.630;23.382;2022-08-03T08:08:56;9.17;;;3.60;;
6195;SDS011;3131;42.630;23.382;2022-08-03T08:11:25;6.97;;;3.70;;
6195;SDS011;3131;42.630;23.382;2022-08-03T08:13:53;6.53;;;3.87;;
6195;SDS011;3131;42.630;23.382;2022-08-03T08:16:20;7.83;;;3.17;;
6195;SDS011;3131;42.630;23.382;2022-08-03T08:18:48;6.50;;;3.53;;
6195;SDS011;3131;42.630;23.382;2022-08-03T08:21:15;8.80;;;3.57;;
6195;SDS011;3131;42.630;23.382;2022-08-03T08:23:43;5.40;;;3.27;;
6195;SDS011;3131;42.630;23.382;2022-08-03T08:26:11;11.80;;;3.43;;
6195;SDS011;3131;42.630;23.382;2022-08-03T08:28:38;5.63;;;3.03;;
6195;SDS011;3131;42.630;23.382;2022-08-03T08:31:05;4.97;;;2.73;;
6195;SDS011;3131;42.630;23.382;2022-08-03T08:33:33;20.87;;;4.40;;
6195;SDS011;3131;42.630;23.382;2022-08-03T08:36:01;5.33;;;3.33;;
6195;SDS011;3131;42.630;23.382;2022-08-03T08:38:28;6.57;;;4.20;;
6195;SDS011;3131;42.630;23.382;2022-08-03T08:40:56;7.67;;;3.43;;
6195;SDS011;3131;42.630;23.382;2022-08-03T08:43:23;7.37;;;3.63;;
6195;SDS011;3131;42.630;23.382;2022-08-03T08:45:51;8.33;;;3.50;;
6195;SDS011;3131;42.630;23.382;2022-08-03T08:48:21;9.63;;;3.47;;
6195;SDS011;3131;42.630;23.382;2022-08-03T08:50:51;10.67;;;4.00;;
6195;SDS011;3131;42.630;23.382;2022-08-03T08:53:19;6.13;;;3.60;;
6195;SDS011;3131;42.630;23.382;2022-08-03T08:55:47;14.00;;;4.30;;
6195;SDS011;3131;42.630;23.382;2022-08-03T08:58:16;7.20;;;3.80;;
6195;SDS011;3131;42.630;23.382;2022-08-03T09:00:45;7.23;;;4.50;;
6195;SDS011;3131;42.630;23.382;2022-08-03T09:03:13;5.83;;;2.97;;
6195;SDS011;3131;42.630;23.382;2022-08-03T09:05:43;10.93;;;3.30;;
6195;SDS011;3131;42.630;23.382;2022-08-03T09:08:11;10.33;;;4.33;;
6195;SDS011;3131;42.630;23.382;2022-08-03T09:10:39;5.87;;;3.50;;
6195;SDS011;3131;42.630;23.382;2022-08-03T09:13:07;17.23;;;4.23;;
6195;SDS011;3131;42.630;23.382;2022-08-03T09:15:34;9.67;;;3.13;;
6195;SDS011;3131;42.630;23.382;2022-08-03T09:18:03;10.50;;;3.73;;
6195;SDS011;3131;42.630;23.382;2022-08-03T09:20:31;10.90;;;3.77;;
6195;SDS011;3131;42.630;23.382;2022-08-03T09:23:03;6.57;;;3.67;;
6195;SDS011;3131;42.630;23.382;2022-08-03T09:25:31;10.27;;;3.53;;
6195;SDS011;3131;42.630;23.382;2022-08-03T09:28:06;9.67;;;4.03;;
6195;SDS011;3131;42.630;23.382;2022-08-03T09:30:35;13.33;;;4.03;;
6195;SDS011;3131;42.630;23.382;2022-08-03T09:33:03;8.20;;;4.47;;
6195;SDS011;3131;42.630;23.382;2022-08-03T09:35:32;4.08;;;2.37;;
6195;SDS011;3131;42.630;23.382;2022-08-03T09:38:09;6.55;;;3.00;;
6195;SDS011;3131;42.630;23.382;2022-08-03T09:40:37;6.70;;;3.00;;
6195;SDS011;3131;42.630;23.382;2022-08-03T09:43:05;5.12;;;2.70;;
6195;SDS011;3131;42.630;23.382;2022-08-03T09:45:33;5.00;;;2.23;;
6195;SDS011;3131;42.630;23.382;2022-08-03T09:48:20;7.33;;;2.42;;
6195;SDS011;3131;42.630;23.382;2022-08-03T09:50:48;7.80;;;3.20;;
6195;SDS011;3131;42.630;23.382;2022-08-03T09:53:16;5.08;;;2.75;;
6195;SDS011;3131;42.630;23.382;2022-08-03T09:55:51;5.58;;;2.55;;
6195;SDS011;3131;42.630;23.382;2022-08-03T09:58:20;6.25;;;2.47;;
6195;SDS011;3131;42.630;23.382;2022-08-03T10:00:55;3.45;;;2.65;;
6195;SDS011;3131;42.630;23.382;2022-08-03T10:03:23;3.47;;;2.10;;
6195;SDS011;3131;42.630;23.382;2022-08-03T10:05:51;4.50;;;2.15;;
6195;SDS011;3131;42.630;23.382;2022-08-03T10:08:19;11.35;;;2.52;;
6195;SDS011;3131;42.630;23.382;2022-08-03T10:10:48;6.50;;;2.40;;
6195;SDS011;3131;42.630;23.382;2022-08-03T10:13:16;5.70;;;2.35;;
6195;SDS011;3131;42.630;23.382;2022-08-03T10:15:44;4.58;;;2.37;;
6195;SDS011;3131;42.630;23.382;2022-08-03T10:18:12;3.30;;;2.27;;
6195;SDS011;3131;42.630;23.382;2022-08-03T10:20:40;8.43;;;3.17;;
6195;SDS011;3131;42.630;23.382;2022-08-03T10:23:09;8.28;;;2.92;;
6195;SDS011;3131;42.630;23.382;2022-08-03T10:25:37;2.52;;;2.22;;
6195;SDS011;3131;42.630;23.382;2022-08-03T10:28:05;3.37;;;3.02;;
6195;SDS011;3131;42.630;23.382;2022-08-03T10:30:34;6.03;;;2.40;;
6195;SDS011;3131;42.630;23.382;2022-08-03T10:33:04;6.40;;;2.55;;
6195;SDS011;3131;42.630;23.382;2022-08-03T10:35:31;4.55;;;2.50;;
6195;SDS011;3131;42.630;23.382;2022-08-03T10:37:59;2.15;;;1.70;;
6195;SDS011;3131;42.630;23.382;2022-08-03T10:40:28;2.60;;;2.27;;
6195;SDS011;3131;42.630;23.382;2022-08-03T10:42:58;7.75;;;2.92;;
6195;SDS011;3131;42.630;23.382;2022-08-03T10:45:26;10.50;;;2.67;;
6195;SDS011;3131;42.630;23.382;2022-08-03T10:47:54;6.83;;;2.25;;
6195;SDS011;3131;42.630;23.382;2022-08-03T10:50:22;3.92;;;2.20;;
6195;SDS011;3131;42.630;23.382;2022-08-03T10:52:54;4.35;;;2.12;;
6195;SDS011;3131;42.630;23.382;2022-08-03T10:55:32;9.48;;;2.42;;
6195;SDS011;3131;42.630;23.382;2022-08-03T10:58:47;6.28;;;2.40;;
6195;SDS011;3131;42.630;23.382;2022-08-03T11:01:15;5.87;;;2.42;;
6195;SDS011;3131;42.630;23.382;2022-08-03T11:06:35;4.67;;;1.92;;
6195;SDS011;3131;42.630;23.382;2022-08-03T11:09:18;3.30;;;2.47;;
6195;SDS011;3131;42.630;23.382;2022-08-03T11:11:46;2.25;;;2.05;;
6195;SDS011;3131;42.630;23.382;2022-08-03T11:14:15;7.05;;;3.67;;
6195;SDS011;3131;42.630;23.382;2022-08-03T11:16:44;2.75;;;1.90;;
6195;SDS011;3131;42.630;23.382;2022-08-03T11:19:13;4.67;;;2.50;;
6195;SDS011;3131;42.630;23.382;2022-08-03T11:21:56;7.80;;;2.62;;
6195;SDS011;3131;42.630;23.382;2022-08-03T11:27:18;2.47;;;1.70;;
6195;SDS011;3131;42.630;23.382;2022-08-03T11:29:53;7.17;;;2.60;;
6195;SDS011;3131;42.630;23.382;2022-08-03T11:35:07;3.92;;;2.25;;
6195;SDS011;3131;42.630;23.382;2022-08-03T11:37:35;3.62;;;2.22;;
6195;SDS011;3131;42.630;23.382;2022-08-03T11:40:04;6.05;;;2.70;;
6195;SDS011;3131;42.630;23.382;2022-08-03T11:42:38;6.20;;;2.77;;
6195;SDS011;3131;42.630;23.382;2022-08-03T11:45:06;2.70;;;1.98;;
6195;SDS011;3131;42.630;23.382;2022-08-03T11:47:36;2.10;;;1.90;;
6195;SDS011;3131;42.630;23.382;2022-08-03T11:50:06;5.92;;;1.92;;
6195;SDS011;3131;42.630;23.382;2022-08-03T11:52:34;5.90;;;1.95;;
6195;SDS011;3131;42.630;23.382;2022-08-03T11:55:02;12.45;;;2.72;;
6195;SDS011;3131;42.630;23.382;2022-08-03T11:57:31;3.22;;;2.27;;
6195;SDS011;3131;42.630;23.382;2022-08-03T11:59:59;4.42;;;2.10;;
6195;SDS011;3131;42.630;23.382;2022-08-03T12:02:26;3.20;;;2.30;;
6195;SDS011;3131;42.630;23.382;2022-08-03T12:04:55;2.20;;;2.00;;
6195;SDS011;3131;42.630;23.382;2022-08-03T12:07:23;7.33;;;2.42;;
6195;SDS011;3131;42.630;23.382;2022-08-03T12:10:06;4.33;;;1.95;;
6195;SDS011;3131;42.630;23.382;2022-08-03T12:12:33;7.97;;;3.40;;
6195;SDS011;3131;42.630;23.382;2022-08-03T12:15:01;4.67;;;2.30;;
6195;SDS011;3131;42.630;23.382;2022-08-03T12:17:32;6.17;;;2.70;;
6195;SDS011;3131;42.630;23.382;2022-08-03T12:20:00;6.90;;;2.37;;
6195;SDS011;3131;42.630;23.382;2022-08-03T12:22:31;6.60;;;2.17;;
6195;SDS011;3131;42.630;23.382;2022-08-03T12:24:59;6.43;;;2.20;;
6195;SDS011;3131;42.630;23.382;2022-08-03T12:27:26;7.43;;;2.20;;
6195;SDS011;3131;42.630;23.382;2022-08-03T12:29:55;14.33;;;2.67;;
6195;SDS011;3131;42.630;23.382;2022-08-03T12:32:23;6.33;;;2.17;;
6195;SDS011;3131;42.630;23.382;2022-08-03T12:34:51;3.40;;;2.37;;
6195;SDS011;3131;42.630;23.382;2022-08-03T12:37:19;6.00;;;2.70;;
6195;SDS011;3131;42.630;23.382;2022-08-03T12:39:49;2.40;;;2.17;;
6195;SDS011;3131;42.630;23.382;2022-08-03T12:42:17;8.43;;;2.70;;
6195;SDS011;3131;42.630;23.382;2022-08-03T12:44:45;3.40;;;2.10;;
6195;SDS011;3131;42.630;23.382;2022-08-03T12:47:14;4.08;;;2.70;;
6195;SDS011;3131;42.630;23.382;2022-08-03T12:49:44;3.45;;;2.22;;
6195;SDS011;3131;42.630;23.382;2022-08-03T12:52:12;2.90;;;2.40;;
6195;SDS011;3131;42.630;23.382;2022-08-03T12:54:40;1.90;;;1.80;;
6195;SDS011;3131;42.630;23.382;2022-08-03T12:57:09;3.83;;;2.12;;
6195;SDS011;3131;42.630;23.382;2022-08-03T12:59:37;3.50;;;2.15;;
6195;SDS011;3131;42.630;23.382;2022-08-03T13:02:12;6.28;;;3.42;;
6195;SDS011;3131;42.630;23.382;2022-08-03T13:04:36;3.08;;;2.10;;
6195;SDS011;3131;42.630;23.382;2022-08-03T13:07:03;2.12;;;1.92;;
6195;SDS011;3131;42.630;23.382;2022-08-03T13:09:40;5.70;;;1.92;;
6195;SDS011;3131;42.630;23.382;2022-08-03T13:12:08;3.45;;;2.25;;
6195;SDS011;3131;42.630;23.382;2022-08-03T13:14:36;6.45;;;2.22;;
6195;SDS011;3131;42.630;23.382;2022-08-03T13:17:04;3.65;;;2.10;;
6195;SDS011;3131;42.630;23.382;2022-08-03T13:19:32;6.08;;;2.30;;
6195;SDS011;3131;42.630;23.382;2022-08-03T13:21:59;9.95;;;6.83;;
6195;SDS011;3131;42.630;23.382;2022-08-03T13:24:27;3.33;;;2.35;;
6195;SDS011;3131;42.630;23.382;2022-08-03T13:26:55;5.40;;;2.30;;
6195;SDS011;3131;42.630;23.382;2022-08-03T13:29:23;4.70;;;1.77;;
6195;SDS011;3131;42.630;23.382;2022-08-03T13:31:50;8.00;;;2.70;;
6195;SDS011;3131;42.630;23.382;2022-08-03T13:34:18;5.40;;;2.53;;
6195;SDS011;3131;42.630;23.382;2022-08-03T13:36:45;6.60;;;2.40;;
6195;SDS011;3131;42.630;23.382;2022-08-03T13:39:12;2.83;;;2.17;;
6195;SDS011;3131;42.630;23.382;2022-08-03T13:41:41;3.60;;;2.33;;
6195;SDS011;3131;42.630;23.382;2022-08-03T13:44:08;8.60;;;3.40;;
6195;SDS011;3131;42.630;23.382;2022-08-03T13:46:36;5.17;;;2.70;;
6195;SDS011;3131;42.630;23.382;2022-08-03T13:49:03;9.10;;;3.50;;
6195;SDS011;3131;42.630;23.382;2022-08-03T13:51:30;11.27;;;2.63;;
6195;SDS011;3131;42.630;23.382;2022-08-03T13:53:58;3.43;;;2.90;;
6195;SDS011;3131;42.630;23.382;2022-08-03T13:56:25;6.37;;;2.60;;
6195;SDS011;3131;42.630;23.382;2022-08-03T13:58:53;4.07;;;2.30;;
6195;SDS011;3131;42.630;23.382;2022-08-03T14:01:20;4.70;;;2.40;;
6195;SDS011;3131;42.630;23.382;2022-08-03T14:03:48;3.87;;;2.60;;
6195;SDS011;3131;42.630;23.382;2022-08-03T14:06:18;3.63;;;2.40;;
6195;SDS011;3131;42.630;23.382;2022-08-03T14:08:45;4.17;;;2.60;;
6195;SDS011;3131;42.630;23.382;2022-08-03T14:11:13;4.53;;;2.50;;
6195;SDS011;3131;42.630;23.382;2022-08-03T14:13:41;4.60;;;2.27;;
6195;SDS011;3131;42.630;23.382;2022-08-03T14:16:09;3.00;;;2.43;;
6195;SDS011;3131;42.630;23.382;2022-08-03T14:18:37;4.37;;;2.53;;
6195;SDS011;3131;42.630;23.382;2022-08-03T14:21:04;3.00;;;2.57;;
6195;SDS011;3131;42.630;23.382;2022-08-03T14:23:32;3.57;;;2.47;;
6195;SDS011;3131;42.630;23.382;2022-08-03T14:26:00;5.30;;;2.70;;
6195;SDS011;3131;42.630;23.382;2022-08-03T14:28:27;3.90;;;2.40;;
6195;SDS011;3131;42.630;23.382;2022-08-03T14:30:55;9.50;;;3.00;;
6195;SDS011;3131;42.630;23.382;2022-08-03T14:33:23;2.73;;;2.27;;
6195;SDS011;3131;42.630;23.382;2022-08-03T14:35:50;9.77;;;2.50;;
6195;SDS011;3131;42.630;23.382;2022-08-03T14:38:18;4.73;;;2.77;;
6195;SDS011;3131;42.630;23.382;2022-08-03T14:40:46;5.90;;;3.07;;
6195;SDS011;3131;42.630;23.382;2022-08-03T14:43:14;3.10;;;2.77;;
6195;SDS011;3131;42.630;23.382;2022-08-03T14:45:42;5.33;;;2.70;;
6195;SDS011;3131;42.630;23.382;2022-08-03T14:48:10;2.70;;;2.30;;
6195;SDS011;3131;42.630;23.382;2022-08-03T14:50:38;2.73;;;2.43;;
6195;SDS011;3131;42.630;23.382;2022-08-03T14:53:05;2.20;;;2.00;;
6195;SDS011;3131;42.630;23.382;2022-08-03T14:55:33;4.97;;;2.97;;
6195;SDS011;3131;42.630;23.382;2022-08-03T14:58:00;3.13;;;2.17;;
6195;SDS011;3131;42.630;23.382;2022-08-03T15:00:29;4.13;;;2.43;;
6195;SDS011;3131;42.630;23.382;2022-08-03T15:02:57;5.30;;;2.00;;
6195;SDS011;3131;42.630;23.382;2022-08-03T15:05:25;8.03;;;2.47;;
6195;SDS011;3131;42.630;23.382;2022-08-03T15:07:52;4.63;;;2.60;;
6195;SDS011;3131;42.630;23.382;2022-08-03T15:10:20;3.73;;;2.70;;
6195;SDS011;3131;42.630;23.382;2022-08-03T15:12:47;5.03;;;2.90;;
6195;SDS011;3131;42.630;23.382;2022-08-03T15:15:15;5.10;;;3.30;;
6195;SDS011;3131;42.630;23.382;2022-08-03T15:17:42;7.93;;;3.73;;
6195;SDS011;3131;42.630;23.382;2022-08-03T15:20:11;9.57;;;3.80;;